createdAt,value
2022-11-04T00:02:09.249Z,3.33
2022-11-04T00:04:37.816Z,3.13
2022-11-04T00:07:27.367Z,3.20
2022-11-04T00:09:55.612Z,3.08
2022-11-04T00:12:25.492Z,3.00
2022-11-04T00:14:54.099Z,2.55
2022-11-04T00:17:22.776Z,2.35
2022-11-04T00:20:10.035Z,2.00
2022-11-04T00:22:58.329Z,2.10
2022-11-04T00:25:44.252Z,1.85
2022-11-04T00:28:31.640Z,1.75
2022-11-04T00:31:21.278Z,1.90
2022-11-04T00:33:49.142Z,1.95
2022-11-04T00:36:18.010Z,1.92
2022-11-04T00:38:47.792Z,1.98
2022-11-04T00:41:29.849Z,2.05
2022-11-04T00:46:27.195Z,1.50
2022-11-04T00:48:55.884Z,1.60
2022-11-04T00:51:24.739Z,1.50
2022-11-04T00:53:54.612Z,1.42
2022-11-04T00:56:23.118Z,1.02
2022-11-04T00:58:51.382Z,0.73
2022-11-04T01:01:20.627Z,1.02
2022-11-04T01:03:50.123Z,1.13
2022-11-04T01:06:18.989Z,1.00
2022-11-04T01:08:47.511Z,0.93
2022-11-04T01:11:17.378Z,1.50
2022-11-04T01:13:45.554Z,0.70
2022-11-04T01:16:14.421Z,0.82
2022-11-04T01:18:43.160Z,1.10
2022-11-04T01:21:14.132Z,0.80
2022-11-04T01:23:43.765Z,0.80
2022-11-04T01:26:14.752Z,0.90
2022-11-04T01:28:44.431Z,0.73
2022-11-04T01:31:14.732Z,0.73
2022-11-04T01:33:43.361Z,0.65
2022-11-04T01:36:12.855Z,0.68
2022-11-04T01:38:41.480Z,0.57
2022-11-04T01:41:13.140Z,0.68
2022-11-04T01:43:49.517Z,0.60
2022-11-04T01:46:27.228Z,0.80
2022-11-04T01:49:00.240Z,0.77
2022-11-04T01:51:30.512Z,0.85
2022-11-04T01:53:58.800Z,0.80
2022-11-04T01:56:29.016Z,0.60
2022-11-04T01:59:04.312Z,0.70
2022-11-04T02:01:32.811Z,0.70
2022-11-04T02:04:23.146Z,0.60
2022-11-04T02:06:54.557Z,0.40
2022-11-04T02:09:24.409Z,0.57
2022-11-04T02:12:09.982Z,0.40
2022-11-04T02:14:40.696Z,0.60
2022-11-04T02:17:24.761Z,0.40
2022-11-04T02:20:30.888Z,0.32
2022-11-04T02:23:22.803Z,0.30
2022-11-04T02:26:22.059Z,0.40
2022-11-04T02:29:22.860Z,0.50
2022-11-04T02:32:00.493Z,1.02
2022-11-04T02:34:36.320Z,0.40
2022-11-04T02:37:14.651Z,0.40
2022-11-04T02:39:52.916Z,0.30
2022-11-04T02:42:29.073Z,0.30
2022-11-04T02:45:07.863Z,0.50
2022-11-04T02:47:39.515Z,0.55
2022-11-04T02:50:10.933Z,0.30
2022-11-04T02:52:48.681Z,0.40
2022-11-04T02:55:24.596Z,0.40
2022-11-04T02:57:55.429Z,0.30
2022-11-04T03:00:23.808Z,0.40
2022-11-04T03:02:58.504Z,0.30
2022-11-04T03:05:30.501Z,0.40
2022-11-04T03:08:03.197Z,0.32
2022-11-04T03:10:37.842Z,0.40
2022-11-04T03:13:11.896Z,0.20
2022-11-04T03:15:43.800Z,0.25
2022-11-04T03:20:47.693Z,0.30
2022-11-04T03:23:16.795Z,0.30
2022-11-04T03:25:47.799Z,0.30
2022-11-04T03:28:28.244Z,0.30
2022-11-04T03:31:03.273Z,0.25
2022-11-04T03:33:40.454Z,0.40
2022-11-04T03:36:10.137Z,0.32
2022-11-04T03:38:39.363Z,0.40
2022-11-04T03:41:13.692Z,0.32
2022-11-04T03:43:43.278Z,0.43
2022-11-04T03:46:12.540Z,0.57
2022-11-04T03:48:45.351Z,0.40
2022-11-04T03:51:13.842Z,0.35
2022-11-04T03:53:42.740Z,0.40
2022-11-04T03:56:30.973Z,0.40
2022-11-04T03:59:12.053Z,0.32
2022-11-04T04:01:49.621Z,0.40
2022-11-04T04:04:27.172Z,0.43
2022-11-04T04:07:02.305Z,0.50
2022-11-04T04:09:38.583Z,0.30
2022-11-04T04:12:13.909Z,0.57
2022-11-04T04:14:46.191Z,0.30
2022-11-04T04:17:20.730Z,0.50
2022-11-04T04:19:55.214Z,0.50
2022-11-04T04:22:26.693Z,2.50
2022-11-04T04:25:15.139Z,1.25
2022-11-04T04:27:45.605Z,0.45
2022-11-04T04:30:16.372Z,0.40
2022-11-04T04:32:47.884Z,0.52
2022-11-04T04:35:36.478Z,0.43
2022-11-04T04:38:23.377Z,0.55
2022-11-04T04:41:14.508Z,0.40
2022-11-04T04:44:01.927Z,0.40
2022-11-04T04:46:32.420Z,0.43
2022-11-04T04:49:07.242Z,0.40
2022-11-04T04:51:41.580Z,0.60
2022-11-04T04:54:10.289Z,0.50
2022-11-04T04:56:38.512Z,6.00
2022-11-04T04:59:06.988Z,11.77
2022-11-04T05:01:35.577Z,2.65
2022-11-04T05:04:03.932Z,5.43
2022-11-04T05:06:32.391Z,11.45
2022-11-04T05:09:02.056Z,8.93
2022-11-04T05:11:30.698Z,45.25
2022-11-04T05:13:59.120Z,28.85
2022-11-04T05:16:27.411Z,12.95
2022-11-04T05:18:55.848Z,3.97
2022-11-04T05:21:24.028Z,1.50
2022-11-04T05:23:52.209Z,0.93
2022-11-04T05:26:22.706Z,1.00
2022-11-04T05:28:51.102Z,0.57
2022-11-04T05:31:19.542Z,1.00
2022-11-04T05:33:47.842Z,0.77
2022-11-04T05:36:18.053Z,0.65
2022-11-04T05:38:52.072Z,0.80
2022-11-04T05:41:26.791Z,0.70
2022-11-04T05:43:56.008Z,0.60
2022-11-04T05:46:24.654Z,0.40
2022-11-04T05:48:53.202Z,0.80
2022-11-04T05:51:25.388Z,0.80
2022-11-04T05:53:53.659Z,0.70
2022-11-04T05:56:23.341Z,0.85
2022-11-04T05:58:51.528Z,0.77
2022-11-04T06:01:29.901Z,1.20
2022-11-04T06:03:59.321Z,0.63
2022-11-04T06:06:30.117Z,5.20
2022-11-04T06:08:58.841Z,7.95
2022-11-04T06:11:30.236Z,4.32
2022-11-04T06:13:59.153Z,3.33
2022-11-04T06:16:28.023Z,3.58
2022-11-04T06:19:01.142Z,2.40
2022-11-04T06:21:35.205Z,1.35
2022-11-04T06:24:03.407Z,0.85
2022-11-04T06:26:33.168Z,0.98
2022-11-04T06:29:01.365Z,0.85
2022-11-04T06:31:29.585Z,0.68
2022-11-04T06:33:57.931Z,0.80
2022-11-04T06:36:26.169Z,0.60
2022-11-04T06:38:57.575Z,0.52
2022-11-04T06:41:29.943Z,0.68
2022-11-04T06:43:59.784Z,0.75
2022-11-04T06:46:30.226Z,0.70
2022-11-04T06:48:58.572Z,2.70
2022-11-04T06:51:27.266Z,1.05
2022-11-04T06:53:55.640Z,1.52
2022-11-04T06:56:24.045Z,2.40
2022-11-04T06:58:53.862Z,1.60
2022-11-04T07:01:26.533Z,1.15
2022-11-04T07:03:56.564Z,0.60
2022-11-04T07:06:25.796Z,0.95
2022-11-04T07:08:54.911Z,3.53
2022-11-04T07:11:25.243Z,2.25
2022-11-04T07:13:53.800Z,1.50
2022-11-04T07:16:23.588Z,1.40
2022-11-04T07:18:52.073Z,2.22
2022-11-04T07:21:20.297Z,4.63
2022-11-04T07:23:48.804Z,3.65
2022-11-04T07:26:17.021Z,2.42
2022-11-04T07:28:45.401Z,2.00
2022-11-04T07:31:14.518Z,2.58
2022-11-04T07:33:44.301Z,1.75
2022-11-04T07:36:14.183Z,1.55
2022-11-04T07:38:42.521Z,1.70
2022-11-04T07:41:11.277Z,2.28
2022-11-04T07:43:39.700Z,1.67
2022-11-04T07:46:10.497Z,1.70
2022-11-04T07:48:39.484Z,1.70
2022-11-04T07:51:12.314Z,1.40
2022-11-04T07:53:40.921Z,1.70
2022-11-04T07:56:12.733Z,1.67
2022-11-04T07:58:41.799Z,1.90
2022-11-04T08:01:12.006Z,1.98
2022-11-04T08:03:40.495Z,1.70
2022-11-04T08:06:13.741Z,1.80
2022-11-04T08:08:43.511Z,1.90
2022-11-04T08:11:17.452Z,2.00
2022-11-04T08:13:47.624Z,1.60
2022-11-04T08:16:17.737Z,1.50
2022-11-04T08:18:46.730Z,1.08
2022-11-04T08:21:17.367Z,1.27
2022-11-04T08:23:46.224Z,1.55
2022-11-04T08:26:17.735Z,1.73
2022-11-04T08:28:46.437Z,1.83
2022-11-04T08:31:18.034Z,1.90
2022-11-04T08:33:46.888Z,1.65
2022-11-04T08:36:18.912Z,1.35
2022-11-04T08:38:47.468Z,1.90
2022-11-04T08:41:17.903Z,1.27
2022-11-04T08:43:46.197Z,1.60
2022-11-04T08:46:15.169Z,1.60
2022-11-04T08:48:44.249Z,1.75
2022-11-04T08:51:15.700Z,1.52
2022-11-04T08:53:45.690Z,1.50
2022-11-04T08:56:17.689Z,1.38
2022-11-04T09:01:14.580Z,1.52
2022-11-04T09:03:43.815Z,1.40
2022-11-04T09:06:16.348Z,1.50
2022-11-04T09:08:46.161Z,1.50
2022-11-04T09:11:16.198Z,1.63
2022-11-04T09:13:44.800Z,2.00
2022-11-04T09:16:15.330Z,2.22
2022-11-04T09:18:44.129Z,2.47
2022-11-04T09:21:12.924Z,2.08
2022-11-04T09:23:41.390Z,2.08
2022-11-04T09:26:13.954Z,1.70
2022-11-04T09:28:42.668Z,11.35
2022-11-04T09:31:12.922Z,5.38
2022-11-04T09:33:41.914Z,2.67
2022-11-04T09:36:11.889Z,1.75
2022-11-04T09:38:41.048Z,1.70
2022-11-04T09:41:36.595Z,1.70
2022-11-04T09:44:12.937Z,2.42
2022-11-04T09:46:41.759Z,2.30
2022-11-04T09:49:13.741Z,1.95
2022-11-04T09:54:31.291Z,2.38
2022-11-04T09:57:02.881Z,2.17
2022-11-04T09:59:34.487Z,2.58
2022-11-04T10:02:23.592Z,2.15
2022-11-04T10:05:03.891Z,2.95
2022-11-04T10:07:46.450Z,2.20
2022-11-04T10:10:21.686Z,2.40
2022-11-04T10:13:09.795Z,2.03
2022-11-04T10:16:05.130Z,2.00
2022-11-04T10:18:47.724Z,1.83
2022-11-04T10:21:27.152Z,1.60
2022-11-04T10:24:07.816Z,2.28
2022-11-04T10:26:43.188Z,1.80
2022-11-04T10:29:17.089Z,1.77
2022-11-04T10:31:47.301Z,1.73
2022-11-04T10:34:26.908Z,1.83
2022-11-04T10:36:57.120Z,2.15
2022-11-04T10:39:30.839Z,2.20
2022-11-04T10:41:59.375Z,2.28
2022-11-04T10:44:31.523Z,1.70
2022-11-04T10:47:08.586Z,1.92
2022-11-04T10:50:22.304Z,2.17
2022-11-04T10:52:42.894Z,2.30
2022-11-04T10:55:27.967Z,1.77
2022-11-04T10:57:58.496Z,2.00
2022-11-04T11:00:40.726Z,2.08
2022-11-04T11:03:31.861Z,2.00
2022-11-04T11:06:15.775Z,1.60
2022-11-04T11:08:45.230Z,1.67
2022-11-04T11:11:15.390Z,1.70
2022-11-04T11:13:45.602Z,1.70
2022-11-04T11:16:19.976Z,1.52
2022-11-04T11:19:15.570Z,1.58
2022-11-04T11:21:48.055Z,1.65
2022-11-04T11:24:20.417Z,1.38
2022-11-04T11:26:50.540Z,1.50
2022-11-04T11:29:23.333Z,1.55
2022-11-04T11:31:54.026Z,1.42
2022-11-04T11:34:27.464Z,1.40
2022-11-04T11:36:57.651Z,1.30
2022-11-04T11:39:29.405Z,1.30
2022-11-04T11:42:00.856Z,1.45
2022-11-04T11:44:33.228Z,1.15
2022-11-04T11:47:04.904Z,1.23
2022-11-04T11:49:35.945Z,2.28
2022-11-04T11:52:32.675Z,1.35
2022-11-04T11:55:07.562Z,1.52
2022-11-04T11:57:46.656Z,1.45
2022-11-04T12:00:40.278Z,2.13
2022-11-04T12:03:20.264Z,1.90
2022-11-04T12:09:22.562Z,1.45
2022-11-04T12:12:05.727Z,2.03
2022-11-04T12:14:49.359Z,1.60
2022-11-04T12:17:29.221Z,1.65
2022-11-04T12:20:13.348Z,1.83
2022-11-04T12:22:52.060Z,1.58
2022-11-04T12:25:27.309Z,2.70
2022-11-04T12:28:04.334Z,2.45
2022-11-04T12:30:40.451Z,1.50
2022-11-04T12:33:21.416Z,2.03
2022-11-04T12:36:04.053Z,2.10
2022-11-04T12:38:57.344Z,1.80
2022-11-04T12:41:59.226Z,1.90
2022-11-04T12:44:31.629Z,1.65
2022-11-04T12:47:11.560Z,1.63
2022-11-04T12:49:59.316Z,1.52
2022-11-04T12:52:46.329Z,1.35
2022-11-04T12:55:44.075Z,1.73
2022-11-04T12:58:25.221Z,1.13
2022-11-04T13:00:59.902Z,1.85
2022-11-04T13:03:33.900Z,1.80
2022-11-04T13:06:06.565Z,2.00
2022-11-04T13:08:42.213Z,2.28
2022-11-04T13:11:23.822Z,2.85
2022-11-04T13:14:01.870Z,2.20
2022-11-04T13:16:32.225Z,2.60
2022-11-04T13:19:01.136Z,2.30
2022-11-04T13:21:34.433Z,2.17
2022-11-04T13:24:07.128Z,1.95
2022-11-04T13:26:35.365Z,2.13
2022-11-04T13:29:13.710Z,1.98
2022-11-04T13:31:50.940Z,2.22
2022-11-04T13:34:33.288Z,4.28
2022-11-04T13:37:13.145Z,6.50
2022-11-04T13:39:47.725Z,3.22
2022-11-04T13:42:37.760Z,2.30
2022-11-04T13:45:14.208Z,2.28
2022-11-04T13:47:50.494Z,1.92
2022-11-04T13:50:36.626Z,1.83
2022-11-04T13:53:06.209Z,2.00
2022-11-04T13:55:36.916Z,1.70
2022-11-04T13:58:07.771Z,2.10
2022-11-04T14:00:37.654Z,1.92
2022-11-04T14:03:38.498Z,1.52
2022-11-04T14:06:09.128Z,1.20
2022-11-04T14:08:37.372Z,1.92
2022-11-04T14:11:13.032Z,1.30
2022-11-04T14:14:02.308Z,1.45
2022-11-04T14:16:44.977Z,1.30
2022-11-04T14:19:57.160Z,1.00
2022-11-04T14:22:49.171Z,1.30
2022-11-04T14:25:27.123Z,1.00
2022-11-04T14:27:58.659Z,1.35
2022-11-04T14:30:44.540Z,1.15
2022-11-04T14:33:29.033Z,1.27
2022-11-04T14:35:58.668Z,1.00
2022-11-04T14:38:30.188Z,1.00
2022-11-04T14:41:21.086Z,1.05
2022-11-04T14:43:51.605Z,1.00
2022-11-04T14:46:35.753Z,1.35
2022-11-04T14:49:06.062Z,1.10
2022-11-04T14:51:41.206Z,1.13
2022-11-04T14:54:16.451Z,1.40
2022-11-04T14:56:44.651Z,1.42
2022-11-04T14:59:23.502Z,1.58
2022-11-04T15:01:53.029Z,1.30
2022-11-04T15:04:26.902Z,1.20
2022-11-04T15:06:56.188Z,1.45
2022-11-04T15:09:27.008Z,1.70
2022-11-04T15:12:20.573Z,1.23
2022-11-04T15:14:51.135Z,1.30
2022-11-04T15:17:21.876Z,1.42
2022-11-04T15:19:53.709Z,1.50
2022-11-04T15:22:22.462Z,1.20
2022-11-04T15:24:51.738Z,1.75
2022-11-04T20:03:57.711Z,5.10
2022-11-04T20:06:25.786Z,5.03
2022-11-04T20:08:53.874Z,5.32
2022-11-04T20:11:23.064Z,5.72
2022-11-04T20:13:51.828Z,5.55
2022-11-04T20:16:21.916Z,6.13
2022-11-04T20:18:51.866Z,5.57
2022-11-04T20:21:22.566Z,5.88
2022-11-04T20:23:50.840Z,5.38
2022-11-04T20:26:23.734Z,5.65
2022-11-04T20:28:54.324Z,5.25
2022-11-04T20:31:24.446Z,5.57
2022-11-04T20:33:53.918Z,7.10
2022-11-04T20:36:25.734Z,7.50
2022-11-04T20:38:57.177Z,14.88
2022-11-04T20:41:25.217Z,20.38
2022-11-04T20:43:55.026Z,22.48
2022-11-04T20:46:25.076Z,13.40
2022-11-04T20:48:53.647Z,11.07
2022-11-04T20:51:25.728Z,8.85
2022-11-04T20:53:56.059Z,7.57
2022-11-04T20:56:25.970Z,6.57
2022-11-04T20:58:59.098Z,6.68
2022-11-04T21:01:30.343Z,6.15
2022-11-04T21:04:01.937Z,6.63
2022-11-04T21:06:32.352Z,6.07
2022-11-04T21:09:01.141Z,6.03
2022-11-04T21:11:32.123Z,11.52
2022-11-04T21:14:00.562Z,12.40
2022-11-04T21:16:30.228Z,8.20
2022-11-04T21:18:58.363Z,5.90
2022-11-04T21:21:28.270Z,5.40
2022-11-04T21:24:01.895Z,5.50
2022-11-04T21:26:32.061Z,4.53
2022-11-04T21:29:01.984Z,5.00
2022-11-04T21:31:31.264Z,5.28
2022-11-04T21:33:59.880Z,5.03
2022-11-04T21:36:28.019Z,5.47
2022-11-04T21:38:56.249Z,5.28
2022-11-04T21:41:28.033Z,6.00
2022-11-04T21:46:24.837Z,17.00
2022-11-04T21:48:52.954Z,27.80
2022-11-04T21:51:23.006Z,18.52
2022-11-04T21:53:51.553Z,11.38
2022-11-04T21:56:21.546Z,7.55
2022-11-04T21:58:52.652Z,6.15
2022-11-04T22:01:29.409Z,5.53
2022-11-04T22:03:59.902Z,5.07
2022-11-04T22:06:34.270Z,4.93
2022-11-04T22:09:04.668Z,5.15
2022-11-04T22:11:39.385Z,4.38
2022-11-04T22:14:09.510Z,4.30
2022-11-04T22:16:39.409Z,5.78
2022-11-04T22:19:08.846Z,5.72
2022-11-04T22:21:40.541Z,5.75
2022-11-04T22:24:11.129Z,5.03
2022-11-04T22:26:39.533Z,5.68
2022-11-04T22:29:09.334Z,5.80
2022-11-04T22:31:40.165Z,5.53
2022-11-04T22:34:08.555Z,5.70
2022-11-04T22:36:36.806Z,5.28
2022-11-04T22:39:05.621Z,5.43
2022-11-04T22:41:35.619Z,6.18
2022-11-04T22:44:04.257Z,5.15
2022-11-04T22:46:35.149Z,4.80
2022-11-04T22:49:03.231Z,5.38
2022-11-04T22:51:32.438Z,5.30
2022-11-04T22:54:07.672Z,5.65
2022-11-04T22:56:36.865Z,6.28
2022-11-04T22:59:05.180Z,5.45
2022-11-04T23:01:34.791Z,5.70
2022-11-04T23:04:03.129Z,5.95
2022-11-04T23:06:31.318Z,6.28
2022-11-04T23:09:00.600Z,5.75
2022-11-04T23:11:47.678Z,6.00
2022-11-04T23:14:34.349Z,5.47
2022-11-04T23:17:21.573Z,5.20
2022-11-04T23:19:51.526Z,5.95
2022-11-04T23:22:36.846Z,5.20
2022-11-04T23:25:09.733Z,5.85
2022-11-04T23:27:58.120Z,6.07
2022-11-04T23:30:27.701Z,5.90
2022-11-04T23:32:58.942Z,5.50
2022-11-04T23:35:46.581Z,5.63
2022-11-04T23:38:15.025Z,9.57
2022-11-04T23:41:03.679Z,9.13
2022-11-04T23:43:30.780Z,8.27
2022-11-04T23:46:16.076Z,7.20
2022-11-04T23:49:03.243Z,7.97
2022-11-04T23:51:49.187Z,5.75
2022-11-04T23:54:34.769Z,5.50
2022-11-04T23:57:20.214Z,5.25
